Аэропорт: Адлер. Сочи

ICAO: URSS

METAR:
2020-10-19 22:00:00
URSS 192200Z 05003MPS 9999 NSC 13/12 Q1022 WS ALL RWY R02/010070 R06/010070 NOSIG RMK R06/00000MPS QFE765
METAR:
2020-10-19 19:56:00
TAF URSS 191956Z 1921/2021 05003G08MPS 9999 SCT016CB SCT100 BECMG 2007/2008 28004G09MPS FEW030 SCT100 TEMPO 2009/2014 28007G12MPS BECMG 2015/2017 05003G08MPS BKN025